sensor_id;sensor_type;location;lat;lon;timestamp;temperature;humidity
5560;DHT22;2803;47.916;8.074;2023-06-14T00:00:14;15.60;76.00
5560;DHT22;2803;47.916;8.074;2023-06-14T00:02:41;15.70;75.30
5560;DHT22;2803;47.916;8.074;2023-06-14T00:05:08;15.70;75.70
5560;DHT22;2803;47.916;8.074;2023-06-14T00:07:38;15.80;75.50
5560;DHT22;2803;47.916;8.074;2023-06-14T00:10:09;15.60;75.00
5560;DHT22;2803;47.916;8.074;2023-06-14T00:12:37;15.80;75.40
5560;DHT22;2803;47.916;8.074;2023-06-14T00:15:05;16.00;75.00
5560;DHT22;2803;47.916;8.074;2023-06-14T00:17:32;16.00;74.60
5560;DHT22;2803;47.916;8.074;2023-06-14T00:19:59;16.10;75.60
5560;DHT22;2803;47.916;8.074;2023-06-14T00:22:30;16.20;76.50
5560;DHT22;2803;47.916;8.074;2023-06-14T00:24:58;16.40;77.50
5560;DHT22;2803;47.916;8.074;2023-06-14T00:27:26;16.40;77.40
5560;DHT22;2803;47.916;8.074;2023-06-14T00:29:53;16.30;76.80
5560;DHT22;2803;47.916;8.074;2023-06-14T00:32:19;16.30;77.30
5560;DHT22;2803;47.916;8.074;2023-06-14T00:34:51;16.10;76.50
5560;DHT22;2803;47.916;8.074;2023-06-14T00:37:17;16.10;76.50
5560;DHT22;2803;47.916;8.074;2023-06-14T00:39:44;16.10;77.10
5560;DHT22;2803;47.916;8.074;2023-06-14T00:42:11;16.20;77.40
5560;DHT22;2803;47.916;8.074;2023-06-14T00:44:39;16.20;77.40
5560;DHT22;2803;47.916;8.074;2023-06-14T00:47:05;16.20;77.80
5560;DHT22;2803;47.916;8.074;2023-06-14T00:49:32;16.30;78.10
5560;DHT22;2803;47.916;8.074;2023-06-14T00:51:59;16.40;78.10
5560;DHT22;2803;47.916;8.074;2023-06-14T00:54:25;16.30;77.50
5560;DHT22;2803;47.916;8.074;2023-06-14T00:56:52;16.20;77.80
5560;DHT22;2803;47.916;8.074;2023-06-14T00:59:19;16.20;77.40
5560;DHT22;2803;47.916;8.074;2023-06-14T01:01:47;16.30;77.30
5560;DHT22;2803;47.916;8.074;2023-06-14T01:04:14;16.20;77.30
5560;DHT22;2803;47.916;8.074;2023-06-14T01:06:54;16.10;77.60
5560;DHT22;2803;47.916;8.074;2023-06-14T01:09:33;16.10;77.10
5560;DHT22;2803;47.916;8.074;2023-06-14T01:12:09;15.90;76.40
5560;DHT22;2803;47.916;8.074;2023-06-14T01:14:38;16.00;78.30
5560;DHT22;2803;47.916;8.074;2023-06-14T01:17:07;16.00;77.60
5560;DHT22;2803;47.916;8.074;2023-06-14T01:19:41;15.90;78.40
5560;DHT22;2803;47.916;8.074;2023-06-14T01:22:08;15.90;79.00
5560;DHT22;2803;47.916;8.074;2023-06-14T01:24:36;15.90;78.50
5560;DHT22;2803;47.916;8.074;2023-06-14T01:27:05;15.90;78.60
5560;DHT22;2803;47.916;8.074;2023-06-14T01:29:33;15.80;79.10
5560;DHT22;2803;47.916;8.074;2023-06-14T01:32:02;15.90;78.70
5560;DHT22;2803;47.916;8.074;2023-06-14T01:34:28;15.90;78.40
5560;DHT22;2803;47.916;8.074;2023-06-14T01:36:55;15.80;78.40
5560;DHT22;2803;47.916;8.074;2023-06-14T01:39:23;15.80;79.60
5560;DHT22;2803;47.916;8.074;2023-06-14T01:41:52;15.80;79.40
5560;DHT22;2803;47.916;8.074;2023-06-14T01:44:20;15.70;78.80
5560;DHT22;2803;47.916;8.074;2023-06-14T01:46:47;15.50;80.20
5560;DHT22;2803;47.916;8.074;2023-06-14T01:49:14;15.60;80.80
5560;DHT22;2803;47.916;8.074;2023-06-14T01:51:41;15.60;81.20
5560;DHT22;2803;47.916;8.074;2023-06-14T01:54:07;15.60;80.60
5560;DHT22;2803;47.916;8.074;2023-06-14T01:56:34;15.50;79.50
5560;DHT22;2803;47.916;8.074;2023-06-14T01:59:02;15.40;79.20
5560;DHT22;2803;47.916;8.074;2023-06-14T02:01:29;15.50;80.00
5560;DHT22;2803;47.916;8.074;2023-06-14T02:03:56;15.30;81.10
5560;DHT22;2803;47.916;8.074;2023-06-14T02:06:24;15.30;81.20
5560;DHT22;2803;47.916;8.074;2023-06-14T02:08:52;15.40;82.40
5560;DHT22;2803;47.916;8.074;2023-06-14T02:11:19;15.30;81.30
5560;DHT22;2803;47.916;8.074;2023-06-14T02:13:46;15.20;81.30
5560;DHT22;2803;47.916;8.074;2023-06-14T02:16:14;15.10;81.70
5560;DHT22;2803;47.916;8.074;2023-06-14T02:18:42;15.10;83.60
5560;DHT22;2803;47.916;8.074;2023-06-14T02:21:09;15.10;83.10
5560;DHT22;2803;47.916;8.074;2023-06-14T02:23:36;15.20;83.00
5560;DHT22;2803;47.916;8.074;2023-06-14T02:26:02;15.10;83.60
5560;DHT22;2803;47.916;8.074;2023-06-14T02:28:29;15.20;83.70
5560;DHT22;2803;47.916;8.074;2023-06-14T02:30:56;15.20;83.80
5560;DHT22;2803;47.916;8.074;2023-06-14T02:33:24;15.10;83.40
5560;DHT22;2803;47.916;8.074;2023-06-14T02:35:51;15.00;83.00
5560;DHT22;2803;47.916;8.074;2023-06-14T02:38:18;15.10;82.30
5560;DHT22;2803;47.916;8.074;2023-06-14T02:40:46;15.00;82.20
5560;DHT22;2803;47.916;8.074;2023-06-14T02:43:12;14.90;82.30
5560;DHT22;2803;47.916;8.074;2023-06-14T02:45:39;14.80;83.10
5560;DHT22;2803;47.916;8.074;2023-06-14T02:48:06;14.90;84.00
5560;DHT22;2803;47.916;8.074;2023-06-14T02:50:34;15.00;84.50
5560;DHT22;2803;47.916;8.074;2023-06-14T02:53:01;15.00;84.00
5560;DHT22;2803;47.916;8.074;2023-06-14T02:55:29;14.80;83.50
5560;DHT22;2803;47.916;8.074;2023-06-14T02:57:55;14.90;83.80
5560;DHT22;2803;47.916;8.074;2023-06-14T03:00:22;15.00;85.20
5560;DHT22;2803;47.916;8.074;2023-06-14T03:02:49;14.90;84.70
5560;DHT22;2803;47.916;8.074;2023-06-14T03:05:16;14.90;85.40
5560;DHT22;2803;47.916;8.074;2023-06-14T03:07:48;14.90;85.80
5560;DHT22;2803;47.916;8.074;2023-06-14T03:10:15;14.80;86.10
5560;DHT22;2803;47.916;8.074;2023-06-14T03:12:42;14.60;85.70
5560;DHT22;2803;47.916;8.074;2023-06-14T03:15:09;14.70;86.00
5560;DHT22;2803;47.916;8.074;2023-06-14T03:17:36;14.70;86.30
5560;DHT22;2803;47.916;8.074;2023-06-14T03:20:04;14.60;86.00
5560;DHT22;2803;47.916;8.074;2023-06-14T03:22:31;14.40;86.50
5560;DHT22;2803;47.916;8.074;2023-06-14T03:25:00;14.50;87.50
5560;DHT22;2803;47.916;8.074;2023-06-14T03:27:29;14.50;88.00
5560;DHT22;2803;47.916;8.074;2023-06-14T03:29:56;14.50;87.20
5560;DHT22;2803;47.916;8.074;2023-06-14T03:32:22;14.40;87.70
5560;DHT22;2803;47.916;8.074;2023-06-14T03:34:49;14.40;88.30
5560;DHT22;2803;47.916;8.074;2023-06-14T03:37:16;14.10;87.50
5560;DHT22;2803;47.916;8.074;2023-06-14T03:39:43;14.20;87.80
5560;DHT22;2803;47.916;8.074;2023-06-14T03:42:13;14.10;88.00
5560;DHT22;2803;47.916;8.074;2023-06-14T03:44:40;14.10;89.00
5560;DHT22;2803;47.916;8.074;2023-06-14T03:47:08;14.20;89.40
5560;DHT22;2803;47.916;8.074;2023-06-14T03:49:35;14.30;89.10
5560;DHT22;2803;47.916;8.074;2023-06-14T03:52:03;14.30;89.00
5560;DHT22;2803;47.916;8.074;2023-06-14T03:54:29;14.10;88.70
5560;DHT22;2803;47.916;8.074;2023-06-14T03:56:58;14.10;89.80
5560;DHT22;2803;47.916;8.074;2023-06-14T03:59:26;14.20;90.00
5560;DHT22;2803;47.916;8.074;2023-06-14T04:01:53;14.10;90.00
5560;DHT22;2803;47.916;8.074;2023-06-14T04:04:20;14.20;90.00
5560;DHT22;2803;47.916;8.074;2023-06-14T04:06:54;14.20;90.20
5560;DHT22;2803;47.916;8.074;2023-06-14T04:09:22;13.80;89.60
5560;DHT22;2803;47.916;8.074;2023-06-14T04:11:50;13.80;90.30
5560;DHT22;2803;47.916;8.074;2023-06-14T04:14:18;13.90;90.50
5560;DHT22;2803;47.916;8.074;2023-06-14T04:16:46;14.10;90.50
5560;DHT22;2803;47.916;8.074;2023-06-14T04:19:13;14.00;90.50
5560;DHT22;2803;47.916;8.074;2023-06-14T04:21:40;14.10;90.40
5560;DHT22;2803;47.916;8.074;2023-06-14T04:24:07;14.10;90.50
5560;DHT22;2803;47.916;8.074;2023-06-14T04:26:39;14.10;90.40
5560;DHT22;2803;47.916;8.074;2023-06-14T04:29:06;14.10;90.70
5560;DHT22;2803;47.916;8.074;2023-06-14T04:31:32;14.10;90.80
5560;DHT22;2803;47.916;8.074;2023-06-14T04:34:01;14.20;90.60
5560;DHT22;2803;47.916;8.074;2023-06-14T04:36:31;14.10;90.50
5560;DHT22;2803;47.916;8.074;2023-06-14T04:39:00;14.10;90.80
5560;DHT22;2803;47.916;8.074;2023-06-14T04:41:28;14.10;90.90
5560;DHT22;2803;47.916;8.074;2023-06-14T04:43:56;14.20;91.10
5560;DHT22;2803;47.916;8.074;2023-06-14T04:46:27;14.30;91.00
5560;DHT22;2803;47.916;8.074;2023-06-14T04:48:54;14.40;90.80
5560;DHT22;2803;47.916;8.074;2023-06-14T04:51:23;14.50;91.30
5560;DHT22;2803;47.916;8.074;2023-06-14T04:53:55;14.40;91.00
5560;DHT22;2803;47.916;8.074;2023-06-14T04:56:24;14.50;91.10
5560;DHT22;2803;47.916;8.074;2023-06-14T04:58:52;14.50;90.50
5560;DHT22;2803;47.916;8.074;2023-06-14T05:01:19;14.60;90.30
5560;DHT22;2803;47.916;8.074;2023-06-14T05:03:46;14.50;90.50
5560;DHT22;2803;47.916;8.074;2023-06-14T05:06:14;14.50;91.00
5560;DHT22;2803;47.916;8.074;2023-06-14T05:08:42;14.50;91.10
5560;DHT22;2803;47.916;8.074;2023-06-14T05:11:08;14.40;91.60
5560;DHT22;2803;47.916;8.074;2023-06-14T05:13:35;14.50;91.40
5560;DHT22;2803;47.916;8.074;2023-06-14T05:16:02;14.60;91.60
5560;DHT22;2803;47.916;8.074;2023-06-14T05:18:28;14.70;91.40
5560;DHT22;2803;47.916;8.074;2023-06-14T05:20:56;14.70;91.60
5560;DHT22;2803;47.916;8.074;2023-06-14T05:23:23;14.70;91.90
5560;DHT22;2803;47.916;8.074;2023-06-14T05:25:51;14.70;92.00
5560;DHT22;2803;47.916;8.074;2023-06-14T05:28:18;14.70;92.40
5560;DHT22;2803;47.916;8.074;2023-06-14T05:30:44;14.80;92.30
5560;DHT22;2803;47.916;8.074;2023-06-14T05:33:11;15.00;92.40
5560;DHT22;2803;47.916;8.074;2023-06-14T05:35:37;15.10;92.30
5560;DHT22;2803;47.916;8.074;2023-06-14T05:38:04;15.20;92.70
5560;DHT22;2803;47.916;8.074;2023-06-14T05:40:31;15.40;93.10
5560;DHT22;2803;47.916;8.074;2023-06-14T05:42:59;15.40;92.90
5560;DHT22;2803;47.916;8.074;2023-06-14T05:45:26;15.60;93.30
5560;DHT22;2803;47.916;8.074;2023-06-14T05:47:52;15.80;93.20
5560;DHT22;2803;47.916;8.074;2023-06-14T05:50:20;15.90;93.50
5560;DHT22;2803;47.916;8.074;2023-06-14T05:52:47;15.90;93.60
5560;DHT22;2803;47.916;8.074;2023-06-14T05:55:15;16.10;93.60
5560;DHT22;2803;47.916;8.074;2023-06-14T05:57:42;16.20;93.80
5560;DHT22;2803;47.916;8.074;2023-06-14T06:00:11;16.50;93.90
5560;DHT22;2803;47.916;8.074;2023-06-14T06:02:40;16.60;94.00
5560;DHT22;2803;47.916;8.074;2023-06-14T06:05:08;16.80;93.60
5560;DHT22;2803;47.916;8.074;2023-06-14T06:07:35;16.90;94.10
5560;DHT22;2803;47.916;8.074;2023-06-14T06:10:01;17.00;94.10
5560;DHT22;2803;47.916;8.074;2023-06-14T06:12:28;17.20;94.00
5560;DHT22;2803;47.916;8.074;2023-06-14T06:14:54;17.30;93.90
5560;DHT22;2803;47.916;8.074;2023-06-14T06:17:23;17.50;94.00
5560;DHT22;2803;47.916;8.074;2023-06-14T06:19:49;17.70;93.90
5560;DHT22;2803;47.916;8.074;2023-06-14T06:22:16;17.90;94.10
5560;DHT22;2803;47.916;8.074;2023-06-14T06:24:42;17.90;94.20
5560;DHT22;2803;47.916;8.074;2023-06-14T06:27:09;18.10;94.20
5560;DHT22;2803;47.916;8.074;2023-06-14T06:29:36;18.40;93.80
5560;DHT22;2803;47.916;8.074;2023-06-14T06:32:03;18.60;93.90
5560;DHT22;2803;47.916;8.074;2023-06-14T06:34:31;18.70;93.80
5560;DHT22;2803;47.916;8.074;2023-06-14T06:36:58;18.80;93.60
5560;DHT22;2803;47.916;8.074;2023-06-14T06:39:24;19.00;93.40
5560;DHT22;2803;47.916;8.074;2023-06-14T06:41:51;19.10;92.40
5560;DHT22;2803;47.916;8.074;2023-06-14T06:44:18;19.40;92.90
5560;DHT22;2803;47.916;8.074;2023-06-14T06:46:45;19.50;92.60
5560;DHT22;2803;47.916;8.074;2023-06-14T06:49:11;19.70;92.30
5560;DHT22;2803;47.916;8.074;2023-06-14T06:51:41;19.80;92.00
5560;DHT22;2803;47.916;8.074;2023-06-14T06:54:08;19.90;90.80
5560;DHT22;2803;47.916;8.074;2023-06-14T06:56:35;20.10;91.50
5560;DHT22;2803;47.916;8.074;2023-06-14T06:59:02;20.20;90.40
5560;DHT22;2803;47.916;8.074;2023-06-14T07:01:28;20.50;87.70
5560;DHT22;2803;47.916;8.074;2023-06-14T07:03:55;20.60;83.60
5560;DHT22;2803;47.916;8.074;2023-06-14T07:06:22;20.30;76.70
5560;DHT22;2803;47.916;8.074;2023-06-14T07:08:53;20.60;87.40
5560;DHT22;2803;47.916;8.074;2023-06-14T07:11:20;20.90;76.80
5560;DHT22;2803;47.916;8.074;2023-06-14T07:13:46;21.00;74.90
5560;DHT22;2803;47.916;8.074;2023-06-14T07:16:13;20.30;70.70
5560;DHT22;2803;47.916;8.074;2023-06-14T07:18:40;20.40;70.40
5560;DHT22;2803;47.916;8.074;2023-06-14T07:21:07;21.00;71.20
5560;DHT22;2803;47.916;8.074;2023-06-14T07:23:35;21.00;71.00
5560;DHT22;2803;47.916;8.074;2023-06-14T07:26:06;21.10;68.90
5560;DHT22;2803;47.916;8.074;2023-06-14T07:28:35;21.50;71.50
5560;DHT22;2803;47.916;8.074;2023-06-14T07:31:03;21.50;68.60
5560;DHT22;2803;47.916;8.074;2023-06-14T07:33:29;22.20;71.50
5560;DHT22;2803;47.916;8.074;2023-06-14T07:35:56;21.50;65.20
5560;DHT22;2803;47.916;8.074;2023-06-14T07:38:23;21.50;66.00
5560;DHT22;2803;47.916;8.074;2023-06-14T07:40:49;21.60;64.00
5560;DHT22;2803;47.916;8.074;2023-06-14T07:43:17;22.10;64.80
5560;DHT22;2803;47.916;8.074;2023-06-14T07:45:44;21.60;65.90
5560;DHT22;2803;47.916;8.074;2023-06-14T07:48:11;21.80;61.70
5560;DHT22;2803;47.916;8.074;2023-06-14T07:50:37;22.20;60.80
5560;DHT22;2803;47.916;8.074;2023-06-14T07:53:04;22.30;60.50
5560;DHT22;2803;47.916;8.074;2023-06-14T07:55:30;22.50;60.10
5560;DHT22;2803;47.916;8.074;2023-06-14T07:57:58;22.20;58.40
5560;DHT22;2803;47.916;8.074;2023-06-14T08:00:26;21.60;58.80
5560;DHT22;2803;47.916;8.074;2023-06-14T08:02:52;21.50;60.80
5560;DHT22;2803;47.916;8.074;2023-06-14T08:05:24;21.70;59.40
5560;DHT22;2803;47.916;8.074;2023-06-14T08:07:51;22.10;59.10
5560;DHT22;2803;47.916;8.074;2023-06-14T08:10:18;22.90;59.70
5560;DHT22;2803;47.916;8.074;2023-06-14T08:12:45;23.40;57.60
5560;DHT22;2803;47.916;8.074;2023-06-14T08:15:12;23.60;57.00
5560;DHT22;2803;47.916;8.074;2023-06-14T08:18:01;22.50;57.30
5560;DHT22;2803;47.916;8.074;2023-06-14T08:20:46;22.00;58.00
5560;DHT22;2803;47.916;8.074;2023-06-14T08:23:31;22.50;57.60
5560;DHT22;2803;47.916;8.074;2023-06-14T08:26:16;22.80;58.30
5560;DHT22;2803;47.916;8.074;2023-06-14T08:28:58;22.60;57.50
5560;DHT22;2803;47.916;8.074;2023-06-14T08:31:47;22.50;57.20
5560;DHT22;2803;47.916;8.074;2023-06-14T08:34:30;22.20;57.70
5560;DHT22;2803;47.916;8.074;2023-06-14T08:37:12;22.30;57.60
5560;DHT22;2803;47.916;8.074;2023-06-14T08:40:00;22.20;57.60
5560;DHT22;2803;47.916;8.074;2023-06-14T08:42:41;22.80;57.10
5560;DHT22;2803;47.916;8.074;2023-06-14T08:45:26;23.20;56.00
5560;DHT22;2803;47.916;8.074;2023-06-14T08:48:11;23.20;55.90
5560;DHT22;2803;47.916;8.074;2023-06-14T08:50:56;22.80;56.80
5560;DHT22;2803;47.916;8.074;2023-06-14T08:53:39;22.60;56.90
5560;DHT22;2803;47.916;8.074;2023-06-14T08:56:24;22.70;56.20
5560;DHT22;2803;47.916;8.074;2023-06-14T08:59:10;22.10;56.20
5560;DHT22;2803;47.916;8.074;2023-06-14T09:01:52;22.30;56.00
5560;DHT22;2803;47.916;8.074;2023-06-14T09:04:38;22.40;56.90
5560;DHT22;2803;47.916;8.074;2023-06-14T09:07:24;22.70;56.00
5560;DHT22;2803;47.916;8.074;2023-06-14T09:10:08;22.50;55.60
5560;DHT22;2803;47.916;8.074;2023-06-14T09:12:51;22.50;56.50
5560;DHT22;2803;47.916;8.074;2023-06-14T09:15:36;22.60;55.20
5560;DHT22;2803;47.916;8.074;2023-06-14T09:18:18;22.70;55.40
5560;DHT22;2803;47.916;8.074;2023-06-14T09:21:06;22.70;55.50
5560;DHT22;2803;47.916;8.074;2023-06-14T09:23:47;22.30;55.20
5560;DHT22;2803;47.916;8.074;2023-06-14T09:26:29;23.20;54.90
5560;DHT22;2803;47.916;8.074;2023-06-14T09:29:18;23.20;55.40
5560;DHT22;2803;47.916;8.074;2023-06-14T09:32:00;22.90;55.90
5560;DHT22;2803;47.916;8.074;2023-06-14T09:34:46;23.30;54.20
5560;DHT22;2803;47.916;8.074;2023-06-14T09:37:28;23.90;54.70
5560;DHT22;2803;47.916;8.074;2023-06-14T09:40:20;24.80;54.40
5560;DHT22;2803;47.916;8.074;2023-06-14T09:42:59;23.80;53.50
5560;DHT22;2803;47.916;8.074;2023-06-14T09:45:44;23.60;54.50
5560;DHT22;2803;47.916;8.074;2023-06-14T09:48:29;23.80;53.50
5560;DHT22;2803;47.916;8.074;2023-06-14T09:51:14;23.80;53.30
5560;DHT22;2803;47.916;8.074;2023-06-14T09:53:59;24.50;53.90
5560;DHT22;2803;47.916;8.074;2023-06-14T09:56:45;24.80;53.50
5560;DHT22;2803;47.916;8.074;2023-06-14T09:59:26;25.60;53.30
5560;DHT22;2803;47.916;8.074;2023-06-14T10:02:13;25.50;51.20
5560;DHT22;2803;47.916;8.074;2023-06-14T10:04:57;25.70;51.10
5560;DHT22;2803;47.916;8.074;2023-06-14T10:07:41;25.20;52.60
5560;DHT22;2803;47.916;8.074;2023-06-14T10:10:24;25.00;52.00
5560;DHT22;2803;47.916;8.074;2023-06-14T10:13:07;24.50;52.70
5560;DHT22;2803;47.916;8.074;2023-06-14T10:15:57;25.00;51.20
5560;DHT22;2803;47.916;8.074;2023-06-14T10:18:49;25.30;51.10
5560;DHT22;2803;47.916;8.074;2023-06-14T10:21:26;25.90;51.70
5560;DHT22;2803;47.916;8.074;2023-06-14T10:24:07;26.20;50.80
5560;DHT22;2803;47.916;8.074;2023-06-14T10:26:51;26.20;50.60
5560;DHT22;2803;47.916;8.074;2023-06-14T10:29:34;26.20;50.90
5560;DHT22;2803;47.916;8.074;2023-06-14T10:32:22;25.90;50.50
5560;DHT22;2803;47.916;8.074;2023-06-14T10:35:05;26.70;49.50
5560;DHT22;2803;47.916;8.074;2023-06-14T10:37:47;27.40;49.60
5560;DHT22;2803;47.916;8.074;2023-06-14T10:40:33;27.40;49.80
5560;DHT22;2803;47.916;8.074;2023-06-14T10:43:21;28.00;49.00
5560;DHT22;2803;47.916;8.074;2023-06-14T10:46:17;28.00;46.70
5560;DHT22;2803;47.916;8.074;2023-06-14T10:48:48;28.10;47.10
5560;DHT22;2803;47.916;8.074;2023-06-14T10:51:38;28.00;47.00
5560;DHT22;2803;47.916;8.074;2023-06-14T10:54:15;28.50;46.90
5560;DHT22;2803;47.916;8.074;2023-06-14T10:56:58;29.10;46.50
5560;DHT22;2803;47.916;8.074;2023-06-14T10:59:43;28.70;45.20
5560;DHT22;2803;47.916;8.074;2023-06-14T11:02:51;27.80;47.20
5560;DHT22;2803;47.916;8.074;2023-06-14T11:05:48;28.20;46.60
5560;DHT22;2803;47.916;8.074;2023-06-14T11:08:44;28.20;46.60
5560;DHT22;2803;47.916;8.074;2023-06-14T11:12:04;28.30;46.00
5560;DHT22;2803;47.916;8.074;2023-06-14T11:14:46;27.30;47.00
5560;DHT22;2803;47.916;8.074;2023-06-14T11:17:31;27.60;47.00
5560;DHT22;2803;47.916;8.074;2023-06-14T11:20:19;27.70;46.40
5560;DHT22;2803;47.916;8.074;2023-06-14T11:23:02;28.20;45.50
5560;DHT22;2803;47.916;8.074;2023-06-14T11:25:49;29.10;45.60
5560;DHT22;2803;47.916;8.074;2023-06-14T11:28:36;29.80;45.30
5560;DHT22;2803;47.916;8.074;2023-06-14T11:31:15;29.40;44.80
5560;DHT22;2803;47.916;8.074;2023-06-14T11:33:58;27.80;45.20
5560;DHT22;2803;47.916;8.074;2023-06-14T11:36:41;27.70;46.00
5560;DHT22;2803;47.916;8.074;2023-06-14T11:39:26;27.50;47.00
5560;DHT22;2803;47.916;8.074;2023-06-14T11:42:08;27.50;46.20
5560;DHT22;2803;47.916;8.074;2023-06-14T11:44:54;28.10;46.40
5560;DHT22;2803;47.916;8.074;2023-06-14T11:47:39;28.40;45.00
5560;DHT22;2803;47.916;8.074;2023-06-14T11:50:24;29.30;46.20
5560;DHT22;2803;47.916;8.074;2023-06-14T11:53:08;29.60;44.10
5560;DHT22;2803;47.916;8.074;2023-06-14T11:55:50;30.20;43.70
5560;DHT22;2803;47.916;8.074;2023-06-14T11:58:35;30.50;42.80
5560;DHT22;2803;47.916;8.074;2023-06-14T12:01:21;30.90;42.30
5560;DHT22;2803;47.916;8.074;2023-06-14T12:04:06;30.80;42.40
5560;DHT22;2803;47.916;8.074;2023-06-14T12:06:51;29.70;43.90
5560;DHT22;2803;47.916;8.074;2023-06-14T12:09:22;29.10;43.50
5560;DHT22;2803;47.916;8.074;2023-06-14T12:11:49;29.10;45.00
5560;DHT22;2803;47.916;8.074;2023-06-14T12:14:16;29.80;44.10
5560;DHT22;2803;47.916;8.074;2023-06-14T12:16:43;30.30;42.20
5560;DHT22;2803;47.916;8.074;2023-06-14T12:19:12;30.80;43.80
5560;DHT22;2803;47.916;8.074;2023-06-14T12:21:40;31.30;41.40
5560;DHT22;2803;47.916;8.074;2023-06-14T12:24:07;31.50;41.20
5560;DHT22;2803;47.916;8.074;2023-06-14T12:26:38;32.20;40.60
5560;DHT22;2803;47.916;8.074;2023-06-14T12:29:05;32.00;40.80
5560;DHT22;2803;47.916;8.074;2023-06-14T12:31:33;31.50;41.50
5560;DHT22;2803;47.916;8.074;2023-06-14T12:33:59;30.20;41.70
5560;DHT22;2803;47.916;8.074;2023-06-14T12:36:26;29.50;43.30
5560;DHT22;2803;47.916;8.074;2023-06-14T12:38:53;29.40;43.70
5560;DHT22;2803;47.916;8.074;2023-06-14T12:41:21;30.20;43.10
5560;DHT22;2803;47.916;8.074;2023-06-14T12:43:49;30.30;42.80
5560;DHT22;2803;47.916;8.074;2023-06-14T12:46:15;31.00;42.00
5560;DHT22;2803;47.916;8.074;2023-06-14T12:48:42;31.60;40.50
5560;DHT22;2803;47.916;8.074;2023-06-14T12:51:08;32.10;39.80
5560;DHT22;2803;47.916;8.074;2023-06-14T12:53:35;32.70;39.80
5560;DHT22;2803;47.916;8.074;2023-06-14T12:56:02;32.70;39.70
5560;DHT22;2803;47.916;8.074;2023-06-14T12:58:28;32.70;38.80
5560;DHT22;2803;47.916;8.074;2023-06-14T13:00:56;33.00;39.60
5560;DHT22;2803;47.916;8.074;2023-06-14T13:03:23;33.20;38.70
5560;DHT22;2803;47.916;8.074;2023-06-14T13:05:50;33.20;38.70
5560;DHT22;2803;47.916;8.074;2023-06-14T13:08:16;33.40;38.50
5560;DHT22;2803;47.916;8.074;2023-06-14T13:10:43;33.00;39.10
5560;DHT22;2803;47.916;8.074;2023-06-14T13:13:10;32.10;39.30
5560;DHT22;2803;47.916;8.074;2023-06-14T13:15:37;32.70;41.60
5560;DHT22;2803;47.916;8.074;2023-06-14T13:18:06;33.50;40.10
5560;DHT22;2803;47.916;8.074;2023-06-14T13:20:33;33.60;39.80
5560;DHT22;2803;47.916;8.074;2023-06-14T13:22:59;33.80;39.90
5560;DHT22;2803;47.916;8.074;2023-06-14T13:25:27;33.50;39.60
5560;DHT22;2803;47.916;8.074;2023-06-14T13:27:54;32.60;40.60
5560;DHT22;2803;47.916;8.074;2023-06-14T13:30:20;32.20;40.80
5560;DHT22;2803;47.916;8.074;2023-06-14T13:32:49;31.60;42.40
5560;DHT22;2803;47.916;8.074;2023-06-14T13:35:19;31.40;42.30
5560;DHT22;2803;47.916;8.074;2023-06-14T13:37:45;30.70;41.90
5560;DHT22;2803;47.916;8.074;2023-06-14T13:40:12;30.50;42.40
5560;DHT22;2803;47.916;8.074;2023-06-14T13:42:39;30.20;42.20
5560;DHT22;2803;47.916;8.074;2023-06-14T13:45:07;30.50;42.00
5560;DHT22;2803;47.916;8.074;2023-06-14T13:47:34;30.30;41.40
5560;DHT22;2803;47.916;8.074;2023-06-14T13:50:01;29.30;42.00
5560;DHT22;2803;47.916;8.074;2023-06-14T13:52:29;29.50;43.30
5560;DHT22;2803;47.916;8.074;2023-06-14T13:54:56;30.40;41.70
5560;DHT22;2803;47.916;8.074;2023-06-14T13:57:23;30.60;41.70
5560;DHT22;2803;47.916;8.074;2023-06-14T13:59:49;30.70;42.60
5560;DHT22;2803;47.916;8.074;2023-06-14T14:02:16;31.00;42.70
5560;DHT22;2803;47.916;8.074;2023-06-14T14:04:43;30.80;42.20
5560;DHT22;2803;47.916;8.074;2023-06-14T14:07:10;31.10;42.00
5560;DHT22;2803;47.916;8.074;2023-06-14T14:09:38;31.30;42.80
5560;DHT22;2803;47.916;8.074;2023-06-14T14:12:05;31.30;42.40
5560;DHT22;2803;47.916;8.074;2023-06-14T14:14:32;31.80;43.20
5560;DHT22;2803;47.916;8.074;2023-06-14T14:16:59;31.90;42.90
5560;DHT22;2803;47.916;8.074;2023-06-14T14:19:26;31.80;43.70
5560;DHT22;2803;47.916;8.074;2023-06-14T14:21:52;31.10;43.40
5560;DHT22;2803;47.916;8.074;2023-06-14T14:24:19;30.60;44.60
5560;DHT22;2803;47.916;8.074;2023-06-14T14:26:47;30.10;45.70
5560;DHT22;2803;47.916;8.074;2023-06-14T14:29:15;30.20;45.10
5560;DHT22;2803;47.916;8.074;2023-06-14T14:31:42;29.70;45.70
5560;DHT22;2803;47.916;8.074;2023-06-14T14:34:09;29.20;45.50
5560;DHT22;2803;47.916;8.074;2023-06-14T14:36:35;29.00;46.10
5560;DHT22;2803;47.916;8.074;2023-06-14T14:39:03;28.70;45.30
5560;DHT22;2803;47.916;8.074;2023-06-14T14:41:29;28.70;47.20
5560;DHT22;2803;47.916;8.074;2023-06-14T14:43:57;28.50;49.10
5560;DHT22;2803;47.916;8.074;2023-06-14T14:46:26;27.60;49.80
5560;DHT22;2803;47.916;8.074;2023-06-14T14:48:53;27.60;49.60
5560;DHT22;2803;47.916;8.074;2023-06-14T14:51:20;27.70;49.30
5560;DHT22;2803;47.916;8.074;2023-06-14T14:53:46;27.50;50.00
5560;DHT22;2803;47.916;8.074;2023-06-14T14:56:13;27.70;49.80
5560;DHT22;2803;47.916;8.074;2023-06-14T14:58:40;27.50;49.00
5560;DHT22;2803;47.916;8.074;2023-06-14T15:01:07;27.00;51.10
5560;DHT22;2803;47.916;8.074;2023-06-14T15:03:34;27.30;50.70
5560;DHT22;2803;47.916;8.074;2023-06-14T15:06:01;27.60;50.80
5560;DHT22;2803;47.916;8.074;2023-06-14T15:08:27;27.10;49.80
5560;DHT22;2803;47.916;8.074;2023-06-14T15:10:54;27.10;50.70
5560;DHT22;2803;47.916;8.074;2023-06-14T15:13:20;27.20;50.70
5560;DHT22;2803;47.916;8.074;2023-06-14T15:15:48;27.60;51.80
5560;DHT22;2803;47.916;8.074;2023-06-14T15:18:16;27.50;51.20
5560;DHT22;2803;47.916;8.074;2023-06-14T15:20:45;27.50;51.20
5560;DHT22;2803;47.916;8.074;2023-06-14T15:23:12;27.10;51.10
5560;DHT22;2803;47.916;8.074;2023-06-14T15:25:45;27.00;52.40
5560;DHT22;2803;47.916;8.074;2023-06-14T15:28:12;27.10;52.30
5560;DHT22;2803;47.916;8.074;2023-06-14T15:30:38;27.50;51.50
5560;DHT22;2803;47.916;8.074;2023-06-14T15:33:05;27.50;50.80
5560;DHT22;2803;47.916;8.074;2023-06-14T15:35:33;27.40;51.20
5560;DHT22;2803;47.916;8.074;2023-06-14T15:37:59;27.60;51.00
5560;DHT22;2803;47.916;8.074;2023-06-14T15:40:26;27.70;51.10
5560;DHT22;2803;47.916;8.074;2023-06-14T15:42:54;27.90;51.40
5560;DHT22;2803;47.916;8.074;2023-06-14T15:45:21;27.50;51.70
5560;DHT22;2803;47.916;8.074;2023-06-14T15:47:50;27.20;52.30
5560;DHT22;2803;47.916;8.074;2023-06-14T15:50:18;26.70;52.80
5560;DHT22;2803;47.916;8.074;2023-06-14T15:52:46;26.80;53.60
5560;DHT22;2803;47.916;8.074;2023-06-14T15:55:12;27.10;53.20
5560;DHT22;2803;47.916;8.074;2023-06-14T15:57:39;27.20;53.10
5560;DHT22;2803;47.916;8.074;2023-06-14T16:00:07;27.20;52.60
5560;DHT22;2803;47.916;8.074;2023-06-14T16:02:33;26.80;52.30
5560;DHT22;2803;47.916;8.074;2023-06-14T16:05:00;27.00;53.60
5560;DHT22;2803;47.916;8.074;2023-06-14T16:07:27;27.20;52.50
5560;DHT22;2803;47.916;8.074;2023-06-14T16:09:55;26.90;53.50
5560;DHT22;2803;47.916;8.074;2023-06-14T16:12:21;27.20;53.50
5560;DHT22;2803;47.916;8.074;2023-06-14T16:14:48;27.00;53.00
5560;DHT22;2803;47.916;8.074;2023-06-14T16:17:14;26.80;52.80
5560;DHT22;2803;47.916;8.074;2023-06-14T16:19:41;27.00;53.30
5560;DHT22;2803;47.916;8.074;2023-06-14T16:22:08;27.10;52.60
5560;DHT22;2803;47.916;8.074;2023-06-14T16:24:34;27.40;51.70
5560;DHT22;2803;47.916;8.074;2023-06-14T16:27:02;27.00;51.10